createdAt,value
2023-06-17T00:01:57.875Z,3.75
2023-06-17T00:04:33.919Z,3.70
2023-06-17T00:07:02.768Z,3.70
2023-06-17T00:09:32.668Z,3.37
2023-06-17T00:12:03.833Z,3.35
2023-06-17T00:14:32.624Z,3.13
2023-06-17T00:17:02.147Z,3.05
2023-06-17T00:19:30.623Z,2.90
2023-06-17T00:21:58.948Z,2.83
2023-06-17T00:24:27.494Z,2.78
2023-06-17T00:26:57.056Z,2.75
2023-06-17T00:29:25.444Z,2.50
2023-06-17T00:31:54.045Z,2.83
2023-06-17T00:34:22.429Z,3.30
2023-06-17T00:36:50.797Z,2.90
2023-06-17T00:39:20.353Z,2.97
2023-06-17T00:41:48.773Z,3.00
2023-06-17T00:44:17.339Z,3.00
2023-06-17T00:46:49.939Z,2.70
2023-06-17T00:49:19.263Z,2.90
2023-06-17T00:52:00.133Z,2.95
2023-06-17T00:54:33.865Z,2.70
2023-06-17T00:57:04.928Z,3.05
2023-06-17T00:59:34.360Z,2.70
2023-06-17T01:02:02.808Z,2.90
2023-06-17T01:04:33.132Z,2.72
2023-06-17T01:07:22.451Z,2.80
2023-06-17T01:10:04.279Z,2.78
2023-06-17T01:12:33.772Z,2.87
2023-06-17T01:15:04.397Z,3.00
2023-06-17T01:17:34.627Z,3.22
2023-06-17T01:20:07.358Z,3.00
2023-06-17T01:22:38.112Z,3.05
2023-06-17T01:25:07.989Z,3.47
2023-06-17T01:27:37.197Z,2.60
2023-06-17T01:30:06.344Z,2.80
2023-06-17T01:32:35.105Z,2.40
2023-06-17T01:35:16.269Z,2.00
2023-06-17T01:37:51.672Z,1.90
2023-06-17T01:40:23.176Z,1.60
2023-06-17T01:42:54.089Z,2.13
2023-06-17T01:45:23.866Z,2.00
2023-06-17T01:47:52.593Z,1.80
2023-06-17T01:50:21.543Z,1.87
2023-06-17T01:52:50.169Z,1.90
2023-06-17T01:55:19.479Z,2.25
2023-06-17T01:57:48.687Z,1.90
2023-06-17T02:00:17.600Z,1.70
2023-06-17T02:02:46.541Z,1.67
2023-06-17T02:05:15.043Z,1.48
2023-06-17T02:07:44.139Z,1.90
2023-06-17T02:10:12.728Z,1.80
2023-06-17T02:12:41.118Z,1.95
2023-06-17T02:15:10.087Z,1.60
2023-06-17T02:17:38.670Z,1.85
2023-06-17T02:20:07.980Z,2.15
2023-06-17T02:22:36.497Z,1.70
2023-06-17T02:25:06.619Z,1.88
2023-06-17T02:27:35.314Z,1.80
2023-06-17T02:30:03.918Z,1.83
2023-06-17T02:32:32.680Z,1.90
2023-06-17T02:35:01.158Z,2.10
2023-06-17T02:37:30.161Z,1.85
2023-06-17T02:39:58.474Z,1.80
2023-06-17T02:42:26.936Z,1.58
2023-06-17T02:44:55.372Z,1.63
2023-06-17T02:47:23.965Z,1.80
2023-06-17T02:49:52.486Z,1.80
2023-06-17T02:52:22.380Z,2.20
2023-06-17T02:54:51.917Z,1.80
2023-06-17T02:57:20.436Z,2.03
2023-06-17T02:59:49.149Z,1.55
2023-06-17T03:02:17.657Z,2.08
2023-06-17T03:04:46.599Z,2.00
2023-06-17T03:07:17.112Z,2.08
2023-06-17T03:09:45.696Z,1.83
2023-06-17T03:12:14.223Z,2.40
2023-06-17T03:14:42.995Z,2.10
2023-06-17T03:17:13.338Z,3.93
2023-06-17T03:19:41.844Z,3.40
2023-06-17T03:22:10.291Z,2.15
2023-06-17T03:24:38.921Z,2.35
2023-06-17T03:27:07.583Z,1.90
2023-06-17T03:29:36.595Z,1.80
2023-06-17T03:32:05.378Z,1.95
2023-06-17T03:34:34.611Z,4.07
2023-06-17T03:37:04.117Z,2.15
2023-06-17T03:39:32.693Z,1.63
2023-06-17T03:42:01.128Z,2.77
2023-06-17T03:44:29.492Z,2.17
2023-06-17T03:46:58.604Z,2.42
2023-06-17T03:49:27.071Z,1.90
2023-06-17T03:51:56.388Z,1.90
2023-06-17T03:54:24.733Z,2.10
2023-06-17T03:56:53.229Z,1.75
2023-06-17T03:59:21.657Z,2.30
2023-06-17T04:01:50.087Z,3.50
2023-06-17T04:04:18.589Z,5.72
2023-06-17T04:06:47.015Z,1.93
2023-06-17T04:09:15.586Z,1.90
2023-06-17T04:11:43.962Z,2.00
2023-06-17T04:14:12.383Z,2.20
2023-06-17T04:16:43.205Z,1.98
2023-06-17T04:19:15.352Z,1.77
2023-06-17T04:21:43.959Z,1.88
2023-06-17T04:24:14.943Z,1.85
2023-06-17T04:26:46.189Z,2.00
2023-06-17T04:29:15.890Z,5.40
2023-06-17T04:31:47.509Z,2.07
2023-06-17T04:34:23.232Z,2.38
2023-06-17T04:36:59.386Z,2.00
2023-06-17T04:39:28.267Z,2.03
2023-06-17T04:41:57.798Z,2.05
2023-06-17T04:44:26.397Z,2.07
2023-06-17T04:46:55.074Z,2.15
2023-06-17T04:49:24.347Z,2.28
2023-06-17T04:51:53.949Z,2.80
2023-06-17T04:54:25.905Z,1.80
2023-06-17T04:56:55.317Z,2.17
2023-06-17T04:59:23.855Z,2.25
2023-06-17T05:01:52.321Z,1.98
2023-06-17T05:04:20.856Z,1.98
2023-06-17T05:06:49.601Z,1.80
2023-06-17T05:09:18.106Z,2.00
2023-06-17T05:11:47.486Z,2.67
2023-06-17T05:14:16.519Z,2.40
2023-06-17T05:16:45.088Z,2.17
2023-06-17T05:19:13.648Z,2.47
2023-06-17T05:21:43.511Z,2.10
2023-06-17T05:24:12.034Z,1.95
2023-06-17T05:26:40.916Z,2.10
2023-06-17T05:29:09.420Z,2.92
2023-06-17T05:31:37.883Z,1.50
2023-06-17T05:34:06.254Z,1.70
2023-06-17T05:36:34.762Z,2.72
2023-06-17T05:39:03.371Z,2.03
2023-06-17T05:41:31.974Z,1.67
2023-06-17T05:44:00.349Z,1.90
2023-06-17T05:46:28.877Z,2.10
2023-06-17T05:48:57.470Z,1.90
2023-06-17T05:51:26.602Z,4.25
2023-06-17T05:53:55.349Z,1.80
2023-06-17T05:56:23.825Z,2.70
2023-06-17T05:58:53.330Z,1.90
2023-06-17T06:01:22.006Z,2.00
2023-06-17T06:03:50.585Z,2.22
2023-06-17T06:06:19.112Z,1.90
2023-06-17T06:08:47.852Z,2.72
2023-06-17T06:11:16.798Z,2.10
2023-06-17T06:13:45.514Z,1.80
2023-06-17T06:16:14.149Z,1.92
2023-06-17T06:18:42.884Z,2.20
2023-06-17T06:21:11.538Z,2.13
2023-06-17T06:23:40.044Z,2.20
2023-06-17T06:26:08.611Z,2.10
2023-06-17T06:28:37.444Z,2.00
2023-06-17T06:31:06.007Z,1.65
2023-06-17T06:33:36.677Z,2.88
2023-06-17T06:36:05.448Z,3.20
2023-06-17T06:38:36.501Z,1.80
2023-06-17T06:41:05.116Z,2.45
2023-06-17T06:43:33.732Z,2.05
2023-06-17T06:46:02.633Z,1.85
2023-06-17T06:48:31.567Z,2.07
2023-06-17T06:51:00.272Z,2.00
2023-06-17T06:53:28.938Z,1.77
2023-06-17T06:56:01.537Z,1.55
2023-06-17T06:58:30.962Z,1.80
2023-06-17T07:00:59.653Z,2.10
2023-06-17T07:03:28.659Z,1.60
2023-06-17T07:05:57.826Z,1.80
2023-06-17T07:08:26.609Z,1.80
2023-06-17T07:10:56.370Z,2.10
2023-06-17T07:13:24.965Z,1.43
2023-06-17T07:15:54.024Z,1.77
2023-06-17T07:18:23.734Z,2.35
2023-06-17T07:20:52.409Z,1.60
2023-06-17T07:23:21.297Z,1.73
2023-06-17T07:25:50.100Z,1.87
2023-06-17T07:28:19.299Z,2.20
2023-06-17T07:30:49.138Z,2.00
2023-06-17T07:33:18.210Z,1.77
2023-06-17T07:35:47.009Z,2.10
2023-06-17T07:38:15.815Z,2.10
2023-06-17T07:40:48.154Z,2.80
2023-06-17T07:43:16.850Z,2.05
2023-06-17T07:45:45.452Z,2.30
2023-06-17T07:48:14.255Z,2.40
2023-06-17T07:50:42.927Z,2.13
2023-06-17T07:53:11.632Z,2.10
2023-06-17T07:55:40.908Z,1.80
2023-06-17T07:58:10.076Z,2.15
2023-06-17T08:00:38.833Z,1.90
2023-06-17T08:03:08.064Z,2.27
2023-06-17T08:05:45.526Z,2.30
2023-06-17T08:08:14.271Z,1.90
2023-06-17T08:10:43.047Z,2.30
2023-06-17T08:13:12.271Z,2.35
2023-06-17T08:15:43.219Z,2.27
2023-06-17T08:18:11.948Z,2.30
2023-06-17T08:20:43.512Z,2.15
2023-06-17T08:23:12.641Z,2.20
2023-06-17T08:25:44.088Z,2.30
2023-06-17T08:28:12.727Z,2.60
2023-06-17T08:30:42.643Z,2.50
2023-06-17T08:33:11.742Z,2.25
2023-06-17T08:35:43.361Z,2.30
2023-06-17T08:38:11.818Z,2.42
2023-06-17T08:40:47.053Z,2.07
2023-06-17T08:43:20.812Z,2.17
2023-06-17T08:45:52.973Z,2.30
2023-06-17T08:48:21.755Z,2.30
2023-06-17T08:50:51.533Z,2.58
2023-06-17T08:53:20.882Z,2.23
2023-06-17T08:55:49.332Z,2.40
2023-06-17T08:58:17.953Z,2.25
2023-06-17T09:00:46.500Z,2.55
2023-06-17T09:03:17.332Z,2.47
2023-06-17T09:05:45.720Z,3.30
2023-06-17T09:08:26.032Z,2.75
2023-06-17T09:10:55.051Z,2.78
2023-06-17T09:13:23.638Z,2.60
2023-06-17T09:15:52.139Z,2.70
2023-06-17T09:18:21.983Z,2.47
2023-06-17T09:20:52.974Z,2.22
2023-06-17T09:23:21.931Z,2.10
2023-06-17T09:26:04.458Z,2.13
2023-06-17T09:28:33.191Z,2.22
2023-06-17T09:31:06.427Z,2.50
2023-06-17T09:33:34.944Z,2.58
2023-06-17T09:36:10.093Z,2.72
2023-06-17T09:38:39.667Z,2.50
2023-06-17T09:41:09.504Z,2.40
2023-06-17T09:43:40.114Z,2.23
2023-06-17T09:46:12.827Z,2.53
2023-06-17T09:48:41.791Z,2.60
2023-06-17T09:51:13.631Z,2.70
2023-06-17T09:53:43.498Z,2.92
2023-06-17T09:56:14.061Z,3.20
2023-06-17T09:58:44.700Z,2.65
2023-06-17T10:01:14.865Z,2.75
2023-06-17T10:03:43.961Z,2.55
2023-06-17T10:06:14.589Z,2.72
2023-06-17T10:08:45.047Z,2.83
2023-06-17T10:11:14.868Z,2.80
2023-06-17T10:13:44.813Z,2.83
2023-06-17T10:16:17.072Z,3.50
2023-06-17T10:18:48.978Z,3.30
2023-06-17T10:21:19.380Z,2.80
2023-06-17T10:23:49.941Z,2.65
2023-06-17T10:26:21.140Z,3.17
2023-06-17T10:28:55.634Z,2.80
2023-06-17T10:31:30.764Z,3.30
2023-06-17T10:34:05.128Z,2.70
2023-06-17T10:36:37.453Z,3.13
2023-06-17T10:39:08.978Z,3.10
2023-06-17T10:41:40.371Z,3.58
2023-06-17T10:44:51.269Z,3.42
2023-06-17T10:47:22.538Z,3.47
2023-06-17T10:49:53.802Z,3.55
2023-06-17T10:52:22.254Z,3.55
2023-06-17T10:54:55.843Z,4.05
2023-06-17T10:57:35.919Z,4.13
2023-06-17T11:00:10.536Z,3.80
2023-06-17T11:02:40.135Z,3.63
2023-06-17T11:05:09.797Z,3.47
2023-06-17T11:07:38.307Z,3.10
2023-06-17T11:10:07.343Z,3.40
2023-06-17T11:12:36.023Z,3.80
2023-06-17T11:15:07.205Z,3.40
2023-06-17T11:17:37.916Z,7.50
2023-06-17T11:20:08.316Z,5.93
2023-06-17T11:22:40.866Z,3.78
2023-06-17T11:25:13.131Z,3.23
2023-06-17T11:27:42.531Z,3.30
2023-06-17T11:30:13.581Z,3.30
2023-06-17T11:32:43.107Z,3.47
2023-06-17T11:35:12.290Z,3.33
2023-06-17T11:37:40.746Z,3.40
2023-06-17T11:40:13.514Z,3.33
2023-06-17T11:42:42.253Z,3.67
2023-06-17T11:45:12.596Z,2.80
2023-06-17T11:47:41.550Z,3.53
2023-06-17T11:50:10.843Z,3.07
2023-06-17T11:52:39.407Z,3.25
2023-06-17T11:55:15.366Z,3.72
2023-06-17T11:57:45.082Z,3.65
2023-06-17T12:00:17.024Z,3.60
2023-06-17T12:02:45.863Z,3.40
2023-06-17T12:05:14.535Z,3.53
2023-06-17T12:07:48.166Z,3.60
2023-06-17T12:10:19.188Z,3.13
2023-06-17T12:12:49.057Z,3.30
2023-06-17T12:15:17.868Z,3.43
2023-06-17T12:17:47.925Z,3.28
2023-06-17T12:20:20.908Z,2.83
2023-06-17T12:22:51.755Z,3.30
2023-06-17T12:25:20.721Z,3.50
2023-06-17T12:27:51.680Z,3.63
2023-06-17T12:30:20.351Z,2.83
2023-06-17T12:32:49.020Z,3.65
2023-06-17T12:35:17.976Z,3.10
2023-06-17T12:37:49.626Z,4.25
2023-06-17T12:40:18.122Z,2.73
2023-06-17T12:42:46.538Z,3.53
2023-06-17T12:45:15.354Z,3.65
2023-06-17T12:47:43.951Z,4.00
2023-06-17T12:50:12.691Z,4.40
2023-06-17T12:52:42.857Z,3.70
2023-06-17T12:55:11.457Z,4.03
2023-06-17T12:57:40.029Z,3.72
2023-06-17T13:00:10.001Z,3.80
2023-06-17T13:02:38.816Z,3.50
2023-06-17T13:05:08.756Z,3.90
2023-06-17T13:07:37.615Z,3.97
2023-06-17T13:10:06.639Z,3.45
2023-06-17T13:12:35.256Z,3.30
2023-06-17T13:15:04.728Z,3.80
2023-06-17T13:17:33.938Z,3.47
2023-06-17T13:20:04.609Z,3.75
2023-06-17T13:22:35.343Z,3.30
2023-06-17T13:25:04.829Z,3.63
2023-06-17T13:27:34.180Z,3.13
2023-06-17T13:30:02.713Z,3.60
2023-06-17T13:32:32.972Z,3.80
2023-06-17T13:35:05.950Z,4.20
2023-06-17T13:37:34.509Z,3.47
2023-06-17T13:40:03.570Z,3.90
2023-06-17T13:42:33.746Z,3.47
2023-06-17T13:45:08.416Z,3.97
2023-06-17T13:47:36.828Z,4.10
2023-06-17T13:50:05.572Z,3.78
2023-06-17T13:52:34.000Z,3.35
2023-06-17T13:55:03.371Z,3.70
2023-06-17T13:57:34.254Z,3.78
2023-06-17T14:00:02.759Z,4.03
2023-06-17T14:02:33.559Z,3.65
2023-06-17T14:05:02.317Z,4.57
2023-06-17T14:07:31.605Z,4.00
2023-06-17T14:10:04.384Z,4.45
2023-06-17T14:12:35.790Z,4.78
2023-06-17T14:15:06.582Z,3.80
2023-06-17T14:17:35.012Z,3.50
2023-06-17T14:20:03.496Z,4.37
2023-06-17T14:22:32.621Z,3.80
2023-06-17T14:25:01.135Z,3.95
2023-06-17T14:27:41.050Z,3.58
2023-06-17T14:30:14.435Z,3.70
2023-06-17T14:32:44.928Z,3.60
2023-06-17T14:35:16.022Z,4.30
2023-06-17T14:37:46.530Z,3.70
2023-06-17T14:40:15.980Z,4.00
2023-06-17T14:42:45.957Z,3.80
2023-06-17T14:45:17.293Z,3.50
2023-06-17T14:47:46.222Z,3.40
2023-06-17T14:50:15.841Z,3.60
2023-06-17T14:52:48.827Z,3.72
2023-06-17T14:55:17.646Z,4.05
2023-06-17T14:57:46.383Z,3.17
2023-06-17T15:00:15.288Z,3.33
2023-06-17T15:03:11.595Z,3.85
2023-06-17T15:05:40.368Z,4.03
2023-06-17T15:08:10.369Z,3.95
2023-06-17T15:10:39.285Z,4.13
2023-06-17T15:13:09.488Z,3.92
2023-06-17T15:15:45.714Z,3.90
2023-06-17T15:18:15.008Z,4.53
2023-06-17T15:20:43.430Z,3.80
2023-06-17T15:23:11.832Z,3.93
2023-06-17T15:25:40.361Z,4.13
2023-06-17T15:28:08.902Z,3.90
2023-06-17T15:30:38.530Z,3.60
2023-06-17T15:33:07.371Z,3.40
2023-06-17T15:35:35.926Z,3.73
2023-06-17T15:38:05.657Z,3.65
2023-06-17T15:40:34.121Z,3.83
2023-06-17T15:43:02.541Z,3.40
2023-06-17T15:45:31.101Z,3.78
2023-06-17T15:47:59.783Z,3.40
2023-06-17T15:50:28.629Z,3.70
2023-06-17T15:52:57.215Z,3.70
2023-06-17T15:55:25.840Z,3.72
2023-06-17T15:57:54.338Z,3.83
2023-06-17T16:00:23.007Z,3.90
2023-06-17T16:02:51.746Z,3.40
2023-06-17T16:05:20.384Z,3.90
2023-06-17T16:07:48.871Z,3.25
2023-06-17T16:10:17.477Z,3.83
2023-06-17T16:12:46.308Z,3.30
2023-06-17T16:15:14.927Z,3.65
2023-06-17T16:17:43.575Z,3.60
2023-06-17T16:20:12.446Z,3.45
2023-06-17T16:22:41.007Z,3.70
2023-06-17T16:25:09.862Z,3.53
2023-06-17T16:27:44.373Z,3.70
2023-06-17T16:30:13.051Z,4.13
2023-06-17T16:32:41.522Z,3.53
2023-06-17T16:35:10.140Z,3.17
2023-06-17T16:37:38.869Z,2.93
2023-06-17T16:40:10.326Z,3.20
2023-06-17T16:42:44.371Z,3.25
2023-06-17T16:45:17.720Z,3.38
2023-06-17T16:47:46.179Z,3.28
2023-06-17T16:50:14.662Z,3.13
2023-06-17T16:52:43.163Z,3.30
2023-06-17T16:55:11.886Z,3.03
2023-06-17T16:57:40.376Z,3.50
2023-06-17T17:00:09.477Z,3.47
2023-06-17T17:02:38.192Z,3.37
2023-06-17T17:05:07.264Z,4.10
2023-06-17T17:07:35.846Z,3.55
2023-06-17T17:10:04.524Z,3.47
2023-06-17T17:12:33.404Z,3.50
2023-06-17T17:15:02.285Z,3.13
2023-06-17T17:17:32.069Z,3.33
2023-06-17T17:20:01.596Z,3.50
2023-06-17T17:22:30.003Z,2.90
2023-06-17T17:24:58.391Z,3.17
2023-06-17T17:27:26.832Z,3.13
2023-06-17T17:29:55.288Z,3.25
2023-06-17T17:32:23.885Z,3.75
2023-06-17T17:34:52.499Z,3.72
2023-06-17T17:37:21.030Z,3.45
2023-06-17T17:39:50.404Z,3.50
2023-06-17T17:42:18.861Z,3.10
2023-06-17T17:44:47.436Z,3.28
2023-06-17T17:47:16.136Z,3.00
2023-06-17T17:49:45.551Z,3.45
2023-06-17T17:52:14.068Z,3.40
2023-06-17T17:54:57.077Z,3.63
2023-06-17T17:57:30.700Z,3.28
2023-06-17T17:59:59.299Z,3.85
2023-06-17T18:02:27.850Z,3.58
2023-06-17T18:04:56.185Z,3.50
2023-06-17T18:07:25.237Z,3.35
2023-06-17T18:09:54.393Z,3.17
2023-06-17T18:12:25.241Z,3.08
2023-06-17T18:14:53.801Z,3.40
2023-06-17T18:17:22.699Z,3.17
2023-06-17T18:19:51.491Z,3.00
2023-06-17T18:22:20.333Z,2.75
2023-06-17T18:24:52.460Z,3.17
2023-06-17T18:27:34.458Z,2.97
2023-06-17T18:30:05.615Z,2.83
2023-06-17T18:32:35.633Z,3.00
2023-06-17T18:35:04.393Z,2.70
2023-06-17T18:37:33.826Z,2.85
2023-06-17T18:40:03.563Z,2.75
2023-06-17T18:42:34.351Z,2.37
2023-06-17T18:45:02.826Z,2.40
2023-06-17T18:47:33.128Z,2.30
2023-06-17T18:50:02.206Z,2.47
2023-06-17T18:52:32.485Z,2.50
2023-06-17T18:55:01.917Z,2.40
2023-06-17T18:57:32.118Z,2.50
2023-06-17T19:00:00.890Z,2.10
2023-06-17T19:02:31.348Z,2.38
2023-06-17T19:05:01.519Z,2.03
2023-06-17T19:07:30.176Z,2.70
2023-06-17T19:09:59.813Z,2.00
2023-06-17T19:12:31.936Z,2.20
2023-06-17T19:15:00.933Z,1.90
2023-06-17T19:17:29.550Z,2.35
2023-06-17T19:20:00.894Z,2.37
2023-06-17T19:22:29.418Z,2.42
2023-06-17T19:24:58.745Z,2.33
2023-06-17T19:27:27.481Z,1.90
2023-06-17T19:30:00.131Z,2.00
2023-06-17T19:32:29.787Z,1.87
2023-06-17T19:35:00.241Z,2.25
2023-06-17T19:37:30.524Z,2.28
2023-06-17T19:39:59.508Z,2.05
2023-06-17T19:42:27.902Z,2.20
2023-06-17T19:44:58.925Z,2.10
2023-06-17T19:47:28.845Z,2.30
2023-06-17T19:49:58.148Z,2.10
2023-06-17T19:52:26.530Z,2.28
2023-06-17T19:54:54.997Z,2.47
2023-06-17T19:57:23.446Z,2.13
2023-06-17T19:59:52.365Z,2.40
2023-06-17T20:02:22.055Z,2.38
2023-06-17T20:04:50.590Z,2.45
2023-06-17T20:07:19.710Z,2.08
2023-06-17T20:09:48.150Z,2.27
2023-06-17T20:12:16.807Z,2.25
2023-06-17T20:14:45.836Z,2.00
2023-06-17T20:17:14.421Z,2.10
2023-06-17T20:19:42.918Z,2.30
2023-06-17T20:22:11.433Z,2.20
2023-06-17T20:24:39.908Z,1.92
2023-06-17T20:27:09.453Z,2.60
2023-06-17T20:29:41.099Z,1.85
2023-06-17T20:32:09.732Z,1.80
2023-06-17T20:34:38.146Z,1.70
2023-06-17T20:37:07.373Z,1.80
2023-06-17T20:39:38.256Z,1.85
2023-06-17T20:42:07.161Z,1.67
2023-06-17T20:44:36.450Z,1.83
2023-06-17T20:47:05.286Z,1.80
2023-06-17T20:49:33.827Z,1.70
2023-06-17T20:52:02.316Z,1.50
2023-06-17T20:54:30.945Z,1.60
2023-06-17T20:56:59.684Z,1.70
2023-06-17T20:59:29.825Z,1.30
2023-06-17T21:01:59.395Z,1.70
2023-06-17T21:04:27.891Z,1.60
2023-06-17T21:06:56.470Z,1.30
2023-06-17T21:09:25.746Z,1.30
2023-06-17T21:11:54.138Z,1.40
2023-06-17T21:14:22.621Z,1.80
2023-06-17T21:16:51.272Z,1.30
2023-06-17T21:19:19.924Z,1.60
2023-06-17T21:21:48.329Z,1.50
2023-06-17T21:24:16.927Z,1.55
2023-06-17T21:26:45.399Z,1.65
2023-06-17T21:29:13.884Z,1.70
2023-06-17T21:31:42.301Z,1.80
2023-06-17T21:34:10.818Z,1.73
2023-06-17T21:36:40.901Z,1.83
2023-06-17T21:39:09.412Z,1.70
2023-06-17T21:41:37.814Z,1.55
2023-06-17T21:44:06.392Z,1.33
2023-06-17T21:46:34.952Z,1.73
2023-06-17T21:49:03.463Z,1.05
2023-06-17T21:51:31.951Z,1.52
2023-06-17T21:54:00.575Z,1.20
2023-06-17T21:56:34.080Z,1.27
2023-06-17T21:59:02.694Z,1.97
2023-06-17T22:01:31.209Z,1.52
2023-06-17T22:03:59.850Z,1.30
2023-06-17T22:06:28.939Z,1.48
2023-06-17T22:08:57.347Z,1.58
2023-06-17T22:11:26.534Z,1.37
2023-06-17T22:13:55.169Z,1.40
2023-06-17T22:16:23.890Z,1.70
2023-06-17T22:18:52.708Z,1.48
2023-06-17T22:21:21.243Z,1.65
2023-06-17T22:23:49.731Z,1.30
2023-06-17T22:26:19.426Z,1.60
2023-06-17T22:28:47.909Z,1.50
2023-06-17T22:31:16.833Z,1.65
2023-06-17T22:33:45.249Z,1.60
2023-06-17T22:36:13.773Z,1.73
2023-06-17T22:38:42.713Z,1.65
2023-06-17T22:41:11.201Z,1.63
2023-06-17T22:43:39.653Z,1.70
2023-06-17T22:46:09.650Z,1.65
2023-06-17T22:48:38.421Z,2.07
2023-06-17T22:51:07.639Z,1.73
2023-06-17T22:53:36.202Z,1.88
2023-06-17T22:56:04.756Z,1.60
2023-06-17T22:58:33.206Z,1.83
2023-06-17T23:01:01.772Z,1.80
2023-06-17T23:03:30.338Z,1.45
2023-06-17T23:05:59.224Z,1.40
2023-06-17T23:08:28.914Z,1.60
2023-06-17T23:10:57.243Z,1.40
2023-06-17T23:13:26.631Z,1.57
2023-06-17T23:15:55.113Z,1.35
2023-06-17T23:18:23.600Z,1.30
2023-06-17T23:20:52.076Z,1.13
2023-06-17T23:23:22.106Z,1.50
2023-06-17T23:25:51.046Z,1.10
2023-06-17T23:28:19.505Z,1.58
2023-06-17T23:30:48.007Z,1.38
2023-06-17T23:33:16.554Z,1.10
2023-06-17T23:35:45.379Z,1.40
2023-06-17T23:38:14.257Z,1.33
2023-06-17T23:40:42.872Z,1.33
2023-06-17T23:43:11.602Z,1.40
2023-06-17T23:45:41.326Z,1.40
2023-06-17T23:48:11.168Z,1.30
2023-06-17T23:50:40.858Z,1.70
2023-06-17T23:53:10.434Z,1.30
2023-06-17T23:55:39.850Z,0.95
2023-06-17T23:58:08.618Z,1.20
